Time;durP1;ratioP1;P1;durP2;ratioP2;P2;SDS_P1;SDS_P2;PMS_P1;PMS_P2;Temp;Humidity;BMP_temperature;BMP_pressure;BME280_temperature;BME280_humidity;BME280_pressure;Samples;Min_cycle;Max_cycle;Signal;HPM_P1;HPM_P2
2023/08/19 00:01:05;;;;;;;8.05;6.30;;;;;;;-148.88;100.00;-17125.47;4993473;28;20026;-89
2023/08/19 00:03:31;;;;;;;7.63;6.63;;;;;;;-148.88;100.00;-17125.47;4994077;28;20029;-89
2023/08/19 00:05:59;;;;;;;7.72;6.20;;;;;;;-148.88;100.00;-17125.47;4994309;28;20026;-89
2023/08/19 00:08:24;;;;;;;13.25;6.38;;;;;;;-148.88;100.00;-17125.47;4993359;28;20026;-89
2023/08/19 00:10:50;;;;;;;8.23;6.47;;;;;;;-148.88;100.00;-17125.47;4993289;28;20173;-88
2023/08/19 00:13:15;;;;;;;9.32;6.47;;;;;;;-148.88;100.00;-17125.47;4993338;28;20397;-89
2023/08/19 00:15:41;;;;;;;8.02;6.50;;;;;;;-148.88;100.00;-17125.47;4993470;28;20026;-88
2023/08/19 00:18:06;;;;;;;8.20;6.55;;;;;;;-148.88;100.00;-17125.47;4993184;28;20029;-89
2023/08/19 00:20:32;;;;;;;9.77;6.75;;;;;;;-148.88;100.00;-17125.47;4993234;28;20026;-90
2023/08/19 00:22:58;;;;;;;9.38;7.00;;;;;;;-148.88;100.00;-17125.47;4993401;28;20034;-89
2023/08/19 00:25:24;;;;;;;8.70;6.47;;;;;;;-148.88;100.00;-17125.47;4993157;28;20029;-89
2023/08/19 00:27:51;;;;;;;9.40;6.45;;;;;;;-148.88;100.00;-17125.47;4993409;28;20057;-89
2023/08/19 00:30:16;;;;;;;8.80;6.93;;;;;;;-148.88;100.00;-17125.47;4992949;28;20030;-89
2023/08/19 00:32:41;;;;;;;8.40;6.68;;;;;;;-148.88;100.00;-17125.47;4992876;28;20033;-89
2023/08/19 00:35:07;;;;;;;9.52;6.90;;;;;;;-148.88;100.00;-17125.47;4992874;28;20026;-90
2023/08/19 00:37:34;;;;;;;11.27;7.75;;;;;;;-148.88;100.00;-17125.47;4993998;28;20026;-89
2023/08/19 00:40:00;;;;;;;8.82;7.03;;;;;;;-148.88;100.00;-17125.47;4993507;28;20381;-90
2023/08/19 00:42:25;;;;;;;8.60;7.03;;;;;;;-148.88;100.00;-17125.47;4991193;22;20494;-84
2023/08/19 00:44:50;;;;;;;8.55;6.63;;;;;;;-148.88;100.00;-17125.47;4956346;29;20090;-84
2023/08/19 00:47:16;;;;;;;8.85;6.95;;;;;;;-148.88;100.00;-17125.47;4957752;28;20027;-85
2023/08/19 00:49:42;;;;;;;9.23;6.78;;;;;;;-148.88;100.00;-17125.47;4956356;29;20037;-85
2023/08/19 00:52:08;;;;;;;9.00;6.80;;;;;;;-148.88;100.00;-17125.47;4957545;28;20099;-85
2023/08/19 00:54:33;;;;;;;8.93;7.13;;;;;;;-148.88;100.00;-17125.47;4958935;29;20055;-85
2023/08/19 00:56:59;;;;;;;9.65;7.15;;;;;;;-148.88;100.00;-17125.47;4959487;28;20059;-85
2023/08/19 00:59:26;;;;;;;12.05;7.03;;;;;;;-148.88;100.00;-17125.47;4956407;29;20031;-85
2023/08/19 01:01:51;;;;;;;9.30;7.05;;;;;;;-148.88;100.00;-17125.47;4955792;28;20037;-83
2023/08/19 01:04:16;;;;;;;9.15;6.70;;;;;;;-148.88;100.00;-17125.47;4955922;29;20110;-84
2023/08/19 01:06:59;;;;;;;10.27;7.85;;;;;;;-148.88;100.00;-17125.47;4956290;29;20113;-82
2023/08/19 01:09:46;;;;;;;9.98;7.43;;;;;;;-148.88;100.00;-17125.47;4955881;29;20031;-85
2023/08/19 01:12:17;;;;;;;12.00;7.68;;;;;;;-148.88;100.00;-17125.47;4956629;28;20118;-84
2023/08/19 01:15:00;;;;;;;10.63;7.65;;;;;;;-148.88;100.00;-17125.47;4956570;29;20023;-83
2023/08/19 01:17:29;;;;;;;9.25;7.75;;;;;;;-148.88;100.00;-17125.47;4956140;29;20071;-84
2023/08/19 01:19:56;;;;;;;9.82;7.68;;;;;;;-148.88;100.00;-17125.47;4956910;28;20035;-83
2023/08/19 01:22:34;;;;;;;10.13;8.27;;;;;;;-148.88;100.00;-17125.47;4955284;28;20026;-84
2023/08/19 01:25:00;;;;;;;9.82;7.60;;;;;;;-148.88;100.00;-17125.47;4955264;29;20024;-84
2023/08/19 01:27:26;;;;;;;11.18;8.10;;;;;;;-148.88;100.00;-17125.47;4956592;28;20027;-85
2023/08/19 01:29:51;;;;;;;10.95;8.20;;;;;;;-148.88;100.00;-17125.47;4956482;28;20019;-84
2023/08/19 01:32:17;;;;;;;13.80;8.55;;;;;;;-148.88;100.00;-17125.47;4958914;28;20023;-84
2023/08/19 01:34:43;;;;;;;10.95;8.70;;;;;;;-148.88;100.00;-17125.47;4958387;29;20078;-84
2023/08/19 01:37:43;;;;;;;11.35;8.10;;;;;;;-148.88;100.00;-17125.47;4959458;28;20414;-84
2023/08/19 01:40:13;;;;;;;10.70;8.52;;;;;;;-148.88;100.00;-17125.47;4960141;28;20065;-84
2023/08/19 01:42:39;;;;;;;10.18;8.35;;;;;;;-148.88;100.00;-17125.47;4959821;28;20039;-83
2023/08/19 01:45:09;;;;;;;14.60;8.13;;;;;;;-148.88;100.00;-17125.47;4958567;28;20022;-85
2023/08/19 01:47:38;;;;;;;12.32;8.57;;;;;;;-148.88;100.00;-17125.47;4959087;29;20114;-85
2023/08/19 01:50:05;;;;;;;11.30;8.05;;;;;;;-148.88;100.00;-17125.47;4959084;29;20030;-85
2023/08/19 01:52:31;;;;;;;11.52;8.68;;;;;;;-148.88;100.00;-17125.47;4959645;28;20077;-85
2023/08/19 01:54:56;;;;;;;10.93;8.63;;;;;;;-148.88;100.00;-17125.47;4959873;28;20019;-84
2023/08/19 01:57:25;;;;;;;11.77;8.90;;;;;;;-148.88;100.00;-17125.47;4959233;29;20461;-84
2023/08/19 01:59:51;;;;;;;9.88;8.15;;;;;;;-148.88;100.00;-17125.47;4959485;28;20020;-84
2023/08/19 02:02:16;;;;;;;13.07;8.50;;;;;;;-148.88;100.00;-17125.47;4958085;28;20094;-84
2023/08/19 02:04:41;;;;;;;9.43;7.80;;;;;;;-148.88;100.00;-17125.47;4957330;29;20414;-84
2023/08/19 02:07:07;;;;;;;9.68;8.38;;;;;;;-148.88;100.00;-17125.47;4958696;29;20023;-84
2023/08/19 02:09:32;;;;;;;10.32;8.20;;;;;;;-148.88;100.00;-17125.47;4957174;28;20019;-85
2023/08/19 02:11:57;;;;;;;11.35;8.32;;;;;;;-148.88;100.00;-17125.47;4958563;28;20550;-84
2023/08/19 02:14:23;;;;;;;13.40;8.90;;;;;;;-148.88;100.00;-17125.47;4958120;29;20201;-85
2023/08/19 02:16:48;;;;;;;11.77;8.75;;;;;;;-148.88;100.00;-17125.47;4957118;29;20414;-85
2023/08/19 02:19:13;;;;;;;9.60;8.63;;;;;;;-148.88;100.00;-17125.47;4958607;29;20027;-85
2023/08/19 02:21:39;;;;;;;11.13;9.32;;;;;;;-148.88;100.00;-17125.47;4957895;28;20042;-85
2023/08/19 02:24:04;;;;;;;10.50;8.80;;;;;;;-148.88;100.00;-17125.47;4956773;28;20178;-85
2023/08/19 02:26:30;;;;;;;10.27;9.18;;;;;;;-148.88;100.00;-17125.47;4957051;29;20119;-85
2023/08/19 02:28:55;;;;;;;12.82;9.25;;;;;;;-148.88;100.00;-17125.47;4962238;29;20030;-85
2023/08/19 02:31:20;;;;;;;12.18;9.07;;;;;;;-148.88;100.00;-17125.47;4962884;28;20031;-85
2023/08/19 02:33:46;;;;;;;11.55;8.77;;;;;;;-148.88;100.00;-17125.47;4958231;28;20028;-86
2023/08/19 02:36:12;;;;;;;12.98;9.13;;;;;;;-148.88;100.00;-17125.47;4957241;29;20065;-85
2023/08/19 02:38:37;;;;;;;12.55;10.30;;;;;;;-148.88;100.00;-17125.47;4962050;28;20031;-85
2023/08/19 02:41:03;;;;;;;16.15;10.00;;;;;;;-148.88;100.00;-17125.47;4960275;28;20034;-85
2023/08/19 02:43:28;;;;;;;10.25;8.75;;;;;;;-148.88;100.00;-17125.47;4962212;28;20038;-85
2023/08/19 02:45:53;;;;;;;12.02;9.60;;;;;;;-148.88;100.00;-17125.47;4961608;29;20058;-85
2023/08/19 02:48:19;;;;;;;14.50;10.93;;;;;;;-148.88;100.00;-17125.47;4960434;29;20023;-84
2023/08/19 02:50:44;;;;;;;14.93;10.52;;;;;;;-148.88;100.00;-17125.47;4960476;28;20030;-85
2023/08/19 02:53:09;;;;;;;14.02;10.00;;;;;;;-148.88;100.00;-17125.47;4961118;29;20099;-85
2023/08/19 02:55:40;;;;;;;13.90;9.68;;;;;;;-148.88;100.00;-17125.47;4965362;28;20032;-85
2023/08/19 02:58:05;;;;;;;11.82;9.90;;;;;;;-148.88;100.00;-17125.47;4967158;28;20058;-86
2023/08/19 03:00:35;;;;;;;11.80;9.55;;;;;;;-148.88;100.00;-17125.47;4961944;28;20023;-85
2023/08/19 03:03:00;;;;;;;14.10;10.65;;;;;;;-148.88;100.00;-17125.47;4963281;28;20027;-85
2023/08/19 03:05:26;;;;;;;12.18;10.18;;;;;;;-148.88;100.00;-17125.47;4963557;28;20054;-86
2023/08/19 03:07:51;;;;;;;13.30;10.23;;;;;;;-148.88;100.00;-17125.47;4957377;28;20074;-84
2023/08/19 03:10:16;;;;;;;12.63;9.98;;;;;;;-148.88;100.00;-17125.47;4959616;28;20027;-85
2023/08/19 03:12:42;;;;;;;14.52;10.13;;;;;;;-148.88;100.00;-17125.47;4958346;28;20050;-83
2023/08/19 03:15:07;;;;;;;13.00;10.93;;;;;;;-148.88;100.00;-17125.47;4960064;28;20496;-85
2023/08/19 03:17:33;;;;;;;12.95;11.63;;;;;;;-148.88;100.00;-17125.47;4959695;29;20079;-85
2023/08/19 03:19:58;;;;;;;14.07;10.73;;;;;;;-148.88;100.00;-17125.47;4959719;29;20477;-85
2023/08/19 03:22:23;;;;;;;13.77;11.05;;;;;;;-148.88;100.00;-17125.47;4961024;28;20029;-85
2023/08/19 03:24:49;;;;;;;12.30;10.88;;;;;;;-148.88;100.00;-17125.47;4957281;29;20051;-87
2023/08/19 03:27:15;;;;;;;14.90;11.65;;;;;;;-148.88;100.00;-17125.47;4957168;28;20027;-85
2023/08/19 03:29:40;;;;;;;13.00;11.55;;;;;;;-148.88;100.00;-17125.47;4960500;28;20509;-85
2023/08/19 03:32:06;;;;;;;13.70;11.98;;;;;;;-148.88;100.00;-17125.47;4956914;28;20031;-85
2023/08/19 03:34:31;;;;;;;14.48;11.85;;;;;;;-148.88;100.00;-17125.47;4957228;29;20098;-85
2023/08/19 03:36:56;;;;;;;13.15;11.70;;;;;;;-148.88;100.00;-17125.47;4957131;29;20487;-86
2023/08/19 03:39:22;;;;;;;15.05;12.07;;;;;;;-148.88;100.00;-17125.47;4957369;28;20114;-86
2023/08/19 03:41:47;;;;;;;14.40;12.10;;;;;;;-148.88;100.00;-17125.47;4957019;28;20033;-86
2023/08/19 03:44:12;;;;;;;15.60;12.25;;;;;;;-148.88;100.00;-17125.47;4956408;28;20558;-86
2023/08/19 03:46:38;;;;;;;16.02;12.55;;;;;;;-148.88;100.00;-17125.47;4955618;28;20585;-86
2023/08/19 03:49:04;;;;;;;15.73;12.40;;;;;;;-148.88;100.00;-17125.47;4957512;28;20372;-86
2023/08/19 03:51:30;;;;;;;16.08;12.82;;;;;;;-148.88;100.00;-17125.47;4956191;28;20394;-86
2023/08/19 03:53:56;;;;;;;16.98;12.60;;;;;;;-148.88;100.00;-17125.47;4955327;28;20020;-86
2023/08/19 03:56:21;;;;;;;15.90;12.57;;;;;;;-148.88;100.00;-17125.47;4956569;28;20031;-86
2023/08/19 03:58:47;;;;;;;15.68;12.70;;;;;;;-148.88;100.00;-17125.47;4956616;28;20030;-86
2023/08/19 04:01:12;;;;;;;17.98;13.02;;;;;;;-148.88;100.00;-17125.47;4955068;28;20023;-86
2023/08/19 04:03:38;;;;;;;16.08;13.68;;;;;;;-148.88;100.00;-17125.47;4955302;29;20569;-86
2023/08/19 04:06:03;;;;;;;14.90;13.35;;;;;;;-148.88;100.00;-17125.47;4955068;28;20027;-86
2023/08/19 04:08:29;;;;;;;16.05;13.07;;;;;;;-148.88;100.00;-17125.47;4955718;28;20065;-85
2023/08/19 04:10:55;;;;;;;15.98;13.73;;;;;;;-148.88;100.00;-17125.47;4956901;28;20035;-85
2023/08/19 04:13:20;;;;;;;17.30;13.88;;;;;;;-148.88;100.00;-17125.47;4955789;28;20122;-86
2023/08/19 04:15:46;;;;;;;16.42;14.05;;;;;;;-148.88;100.00;-17125.47;4955831;29;20118;-86
2023/08/19 04:18:11;;;;;;;15.35;13.65;;;;;;;-148.88;100.00;-17125.47;4955323;29;20034;-84
2023/08/19 04:20:41;;;;;;;17.70;14.38;;;;;;;-148.88;100.00;-17125.47;4960557;28;20023;-85
2023/08/19 04:23:06;;;;;;;17.80;14.25;;;;;;;-148.88;100.00;-17125.47;4956797;29;20027;-85
2023/08/19 04:25:32;;;;;;;17.63;14.98;;;;;;;-148.88;100.00;-17125.47;4955506;29;20031;-84
2023/08/19 04:27:57;;;;;;;17.08;13.40;;;;;;;-148.88;100.00;-17125.47;4956588;29;20065;-84
2023/08/19 04:30:23;;;;;;;21.55;14.30;;;;;;;-148.88;100.00;-17125.47;4956194;29;20023;-84
2023/08/19 04:32:48;;;;;;;15.48;13.88;;;;;;;-148.88;100.00;-17125.47;4955121;28;20560;-84
2023/08/19 04:35:13;;;;;;;15.52;13.88;;;;;;;-148.88;100.00;-17125.47;4957215;28;20472;-85
2023/08/19 04:37:39;;;;;;;17.58;13.93;;;;;;;-148.88;100.00;-17125.47;4956820;28;20035;-85
2023/08/19 04:40:09;;;;;;;17.70;14.40;;;;;;;-148.88;100.00;-17125.47;4958016;28;20159;-85
2023/08/19 04:42:38;;;;;;;17.52;14.88;;;;;;;-148.88;100.00;-17125.47;4956858;28;20063;-84
2023/08/19 04:45:05;;;;;;;17.95;15.00;;;;;;;-148.88;100.00;-17125.47;4955752;29;20030;-85
2023/08/19 04:47:32;;;;;;;17.88;15.18;;;;;;;-148.88;100.00;-17125.47;4955048;28;20027;-85
2023/08/19 04:49:57;;;;;;;16.42;14.18;;;;;;;-148.88;100.00;-17125.47;4956332;28;20030;-86
2023/08/19 04:52:23;;;;;;;18.48;15.32;;;;;;;-148.88;100.00;-17125.47;4956640;28;20023;-85
2023/08/19 04:54:48;;;;;;;16.70;14.82;;;;;;;-148.88;100.00;-17125.47;4958602;28;20033;-86
2023/08/19 04:57:13;;;;;;;19.52;14.80;;;;;;;-148.88;100.00;-17125.47;4959413;28;20043;-85
2023/08/19 04:59:39;;;;;;;18.42;15.05;;;;;;;-148.88;100.00;-17125.47;4959820;29;20031;-84
2023/08/19 05:02:04;;;;;;;18.08;15.60;;;;;;;-148.88;100.00;-17125.47;4962965;28;20023;-84
2023/08/19 05:04:30;;;;;;;19.52;15.88;;;;;;;-148.88;100.00;-17125.47;4959038;28;20502;-85
2023/08/19 05:06:55;;;;;;;18.25;16.33;;;;;;;-148.88;100.00;-17125.47;4962219;28;20050;-84
2023/08/19 05:09:20;;;;;;;18.00;15.50;;;;;;;-148.88;100.00;-17125.47;4962681;28;20038;-85
2023/08/19 05:11:46;;;;;;;19.55;15.93;;;;;;;-148.88;100.00;-17125.47;4958599;28;20050;-86
2023/08/19 05:14:11;;;;;;;18.30;15.68;;;;;;;-148.88;100.00;-17125.47;4958787;28;20023;-85
2023/08/19 05:16:36;;;;;;;18.83;15.55;;;;;;;-148.88;100.00;-17125.47;4959272;28;20035;-86
2023/08/19 05:19:05;;;;;;;19.05;15.85;;;;;;;-148.88;100.00;-17125.47;4959573;29;20063;-85
2023/08/19 05:21:31;;;;;;;22.00;16.02;;;;;;;-148.88;100.00;-17125.47;4958636;28;20027;-86
2023/08/19 05:23:56;;;;;;;21.17;16.25;;;;;;;-148.88;100.00;-17125.47;4960031;28;20486;-86
2023/08/19 05:26:21;;;;;;;18.35;15.77;;;;;;;-148.88;100.00;-17125.47;4959866;28;20027;-86
2023/08/19 05:28:47;;;;;;;19.45;15.93;;;;;;;-148.88;100.00;-17125.47;4963698;28;20023;-85
2023/08/19 05:31:12;;;;;;;18.55;15.85;;;;;;;-148.88;100.00;-17125.47;4962168;28;20027;-85
2023/08/19 05:33:38;;;;;;;17.20;15.35;;;;;;;-148.88;100.00;-17125.47;4959783;28;20058;-86
2023/08/19 05:36:04;;;;;;;19.25;16.13;;;;;;;-148.88;100.00;-17125.47;4961093;28;20514;-85
2023/08/19 05:38:29;;;;;;;18.95;16.45;;;;;;;-148.88;100.00;-17125.47;4962909;28;20486;-86
2023/08/19 05:40:56;;;;;;;20.92;16.27;;;;;;;-148.88;100.00;-17125.47;4960545;28;20034;-86
2023/08/19 05:43:21;;;;;;;19.88;16.83;;;;;;;-148.88;100.00;-17125.47;4958438;28;20049;-86
2023/08/19 05:45:47;;;;;;;19.80;15.88;;;;;;;-148.88;100.00;-17125.47;4959219;28;20023;-86
2023/08/19 05:48:12;;;;;;;19.83;16.10;;;;;;;-148.88;100.00;-17125.47;4960656;28;20111;-86
2023/08/19 05:50:40;;;;;;;17.63;15.73;;;;;;;-148.88;100.00;-17125.47;4960773;28;20023;-86
2023/08/19 05:53:09;;;;;;;19.23;15.15;;;;;;;-148.88;100.00;-17125.47;4961556;28;20123;-86
2023/08/19 05:55:34;;;;;;;19.77;16.73;;;;;;;-148.88;100.00;-17125.47;4963178;28;20024;-86
2023/08/19 05:58:00;;;;;;;21.08;17.80;;;;;;;-148.88;100.00;-17125.47;4963832;28;20082;-87
2023/08/19 06:00:31;;;;;;;22.63;17.38;;;;;;;-148.88;100.00;-17125.47;4964018;28;20027;-85
2023/08/19 06:02:56;;;;;;;20.23;16.45;;;;;;;-148.88;100.00;-17125.47;4962078;28;20394;-86
2023/08/19 06:05:25;;;;;;;20.52;16.80;;;;;;;-148.88;100.00;-17125.47;4963949;28;20505;-86
2023/08/19 06:07:50;;;;;;;20.27;17.48;;;;;;;-148.88;100.00;-17125.47;4962963;28;20085;-86
2023/08/19 06:10:18;;;;;;;21.75;16.60;;;;;;;-148.88;100.00;-17125.47;4962912;28;20106;-87
2023/08/19 06:12:47;;;;;;;19.02;16.65;;;;;;;-148.88;100.00;-17125.47;4961986;28;20506;-86
2023/08/19 06:15:12;;;;;;;20.38;16.77;;;;;;;-148.88;100.00;-17125.47;4963287;28;20030;-86
2023/08/19 06:17:38;;;;;;;20.27;16.92;;;;;;;-148.88;100.00;-17125.47;4961753;28;20031;-84
2023/08/19 06:20:15;;;;;;;19.75;16.00;;;;;;;-148.88;100.00;-17125.47;4958781;28;20031;-86
2023/08/19 06:22:49;;;;;;;18.33;15.38;;;;;;;-148.88;100.00;-17125.47;4959540;28;20023;-86
2023/08/19 06:25:14;;;;;;;18.58;15.95;;;;;;;-148.88;100.00;-17125.47;4959662;29;20031;-87
2023/08/19 06:27:39;;;;;;;17.90;15.73;;;;;;;-148.88;100.00;-17125.47;4960369;28;20050;-85
2023/08/19 06:30:06;;;;;;;18.25;15.88;;;;;;;-148.88;100.00;-17125.47;4958969;28;20076;-87
2023/08/19 06:32:32;;;;;;;20.38;15.95;;;;;;;-148.88;100.00;-17125.47;4957273;28;20039;-87
2023/08/19 06:35:00;;;;;;;17.80;14.70;;;;;;;-148.88;100.00;-17125.47;4957227;28;20031;-86
2023/08/19 06:37:30;;;;;;;18.30;14.60;;;;;;;-148.88;100.00;-17125.47;4956981;28;20036;-86
2023/08/19 06:40:00;;;;;;;15.30;13.70;;;;;;;-148.88;100.00;-17125.47;4960319;28;20406;-86
2023/08/19 06:42:27;;;;;;;15.38;13.27;;;;;;;-148.88;100.00;-17125.47;4959764;28;20138;-85
2023/08/19 06:44:58;;;;;;;15.13;12.52;;;;;;;-148.88;100.00;-17125.47;4959339;28;20028;-85
2023/08/19 06:47:26;;;;;;;14.70;12.20;;;;;;;-148.88;100.00;-17125.47;4960298;28;20039;-86
2023/08/19 06:49:55;;;;;;;16.75;12.95;;;;;;;-148.88;100.00;-17125.47;4961342;28;20058;-86
2023/08/19 06:52:21;;;;;;;15.23;11.90;;;;;;;-148.88;100.00;-17125.47;4959914;28;20081;-86
2023/08/19 06:54:48;;;;;;;13.30;11.73;;;;;;;-148.88;100.00;-17125.47;4962406;28;20059;-85
2023/08/19 06:57:24;;;;;;;15.90;11.95;;;;;;;-148.88;100.00;-17125.47;4957390;28;20043;-85
2023/08/19 06:59:54;;;;;;;19.30;11.73;;;;;;;-148.88;100.00;-17125.47;4957371;29;20114;-86
2023/08/19 07:02:21;;;;;;;17.10;11.70;;;;;;;-148.88;100.00;-17125.47;4957944;28;20106;-85
2023/08/19 07:04:59;;;;;;;15.98;11.88;;;;;;;-148.88;100.00;-17125.47;4960346;28;20026;-86
2023/08/19 07:07:31;;;;;;;14.95;12.50;;;;;;;-148.88;100.00;-17125.47;4960986;29;20055;-86
2023/08/19 07:10:00;;;;;;;14.48;11.60;;;;;;;-148.88;100.00;-17125.47;4960375;29;20050;-86
2023/08/19 07:12:25;;;;;;;13.60;11.25;;;;;;;-148.88;100.00;-17125.47;4974838;28;20042;-87
2023/08/19 07:14:51;;;;;;;15.07;11.77;;;;;;;-148.88;100.00;-17125.47;4970035;28;20039;-86
2023/08/19 07:17:22;;;;;;;13.07;10.77;;;;;;;-148.88;100.00;-17125.47;4960881;28;20090;-86
2023/08/19 07:19:50;;;;;;;13.88;11.00;;;;;;;-148.88;100.00;-17125.47;4958310;28;20031;-86
2023/08/19 07:22:17;;;;;;;14.18;10.98;;;;;;;-148.88;100.00;-17125.47;4957596;28;20035;-86
2023/08/19 07:25:19;;;;;;;11.90;10.07;;;;;;;-148.88;100.00;-17125.47;4956838;28;20039;-86
2023/08/19 07:27:45;;;;;;;12.75;10.70;;;;;;;-148.88;100.00;-17125.47;4900857;29;20040;-86
2023/08/19 07:30:12;;;;;;;12.60;10.32;;;;;;;-148.88;100.00;-17125.47;4951521;28;20130;-86
2023/08/19 07:32:47;;;;;;;12.35;10.00;;;;;;;-148.88;100.00;-17125.47;4959196;28;20482;-86
2023/08/19 07:35:42;;;;;;;11.45;10.18;;;;;;;-148.88;100.00;-17125.47;4956558;28;20505;-85
2023/08/19 07:38:20;;;;;;;12.05;10.00;;;;;;;-148.88;100.00;-17125.47;4958780;28;20039;-86
2023/08/19 07:40:48;;;;;;;11.40;9.85;;;;;;;-148.88;100.00;-17125.47;4959756;28;20039;-86
2023/08/19 07:43:17;;;;;;;12.88;10.00;;;;;;;-148.88;100.00;-17125.47;4960238;28;20031;-84
2023/08/19 07:45:55;;;;;;;12.13;9.90;;;;;;;-148.88;100.00;-17125.47;4960308;28;20031;-85
2023/08/19 07:48:30;;;;;;;12.35;9.10;;;;;;;-148.88;100.00;-17125.47;4960672;29;20035;-85
2023/08/19 07:50:56;;;;;;;11.57;9.25;;;;;;;-148.88;100.00;-17125.47;4961082;28;20034;-86
2023/08/19 07:53:22;;;;;;;12.35;10.20;;;;;;;-148.88;100.00;-17125.47;4963071;28;20019;-85
2023/08/19 07:55:47;;;;;;;12.02;9.95;;;;;;;-148.88;100.00;-17125.47;4964070;28;20490;-86
2023/08/19 07:58:16;;;;;;;12.73;10.50;;;;;;;-148.88;100.00;-17125.47;4964469;28;20059;-86
2023/08/19 08:00:52;;;;;;;13.10;10.30;;;;;;;-148.88;100.00;-17125.47;4959192;28;20035;-84
2023/08/19 08:03:21;;;;;;;10.98;9.85;;;;;;;-148.88;100.00;-17125.47;4960984;29;20463;-86
2023/08/19 08:05:58;;;;;;;12.05;9.90;;;;;;;-148.88;100.00;-17125.47;4958656;28;20027;-84
2023/08/19 08:08:23;;;;;;;12.70;9.65;;;;;;;-148.88;100.00;-17125.47;4957448;29;20070;-85
2023/08/19 08:11:03;;;;;;;13.32;10.38;;;;;;;-148.88;100.00;-17125.47;4959237;28;20110;-87
2023/08/19 08:13:29;;;;;;;12.70;10.13;;;;;;;-148.88;100.00;-17125.47;4955958;29;20035;-87
2023/08/19 08:16:02;;;;;;;12.00;9.77;;;;;;;-148.88;100.00;-17125.47;4955775;28;20102;-86
2023/08/19 08:18:28;;;;;;;13.00;9.90;;;;;;;-148.88;100.00;-17125.47;4956543;28;20474;-86
2023/08/19 08:20:53;;;;;;;11.48;10.18;;;;;;;-148.88;100.00;-17125.47;4955227;28;20090;-86
2023/08/19 08:23:33;;;;;;;11.07;9.98;;;;;;;-148.88;100.00;-17125.47;4956050;28;20401;-85
2023/08/19 08:25:58;;;;;;;12.27;9.63;;;;;;;-148.88;100.00;-17125.47;4955567;28;20549;-86
2023/08/19 08:28:24;;;;;;;13.25;9.73;;;;;;;-148.88;100.00;-17125.47;4956938;28;20111;-86
2023/08/19 08:30:49;;;;;;;10.98;8.85;;;;;;;-148.88;100.00;-17125.47;4955885;28;20414;-87
2023/08/19 08:33:21;;;;;;;10.43;8.77;;;;;;;-148.88;100.00;-17125.47;4955578;28;20089;-86
2023/08/19 08:36:04;;;;;;;11.98;9.00;;;;;;;-148.88;100.00;-17125.47;4955326;29;20051;-87
2023/08/19 08:38:30;;;;;;;;;;;;;;;-148.88;100.00;-17125.47;4954841;29;20616;-88
2023/08/19 08:41:01;;;;;;;13.35;8.98;;;;;;;-148.88;100.00;-17125.47;4963151;23;19917;-77
2023/08/19 08:43:28;;;;;;;12.05;9.15;;;;;;;-148.88;100.00;-17125.47;4956040;28;20046;-77
2023/08/19 08:45:54;;;;;;;11.32;8.65;;;;;;;-148.88;100.00;-17125.47;4955555;28;20019;-77
2023/08/19 08:48:19;;;;;;;12.55;8.68;;;;;;;-148.88;100.00;-17125.47;4955168;28;20031;-77
2023/08/19 08:50:45;;;;;;;13.27;8.25;;;;;;;-148.88;100.00;-17125.47;4955159;28;20025;-77
2023/08/19 08:53:12;;;;;;;13.73;8.35;;;;;;;-148.88;100.00;-17125.47;4955384;28;20027;-77
2023/08/19 08:55:38;;;;;;;10.35;8.57;;;;;;;-148.88;100.00;-17125.47;4954995;28;20074;-77
2023/08/19 08:58:03;;;;;;;9.30;8.30;;;;;;;-148.88;100.00;-17125.47;4955033;28;20035;-77
2023/08/19 09:00:29;;;;;;;11.20;8.77;;;;;;;-148.88;100.00;-17125.47;4955053;28;20110;-77
2023/08/19 09:02:55;;;;;;;12.18;8.55;;;;;;;-148.88;100.00;-17125.47;4955214;28;20402;-77
2023/08/19 09:05:25;;;;;;;10.02;8.43;;;;;;;-148.88;100.00;-17125.47;4953767;29;20371;-77
2023/08/19 09:07:52;;;;;;;10.50;8.15;;;;;;;-148.88;100.00;-17125.47;4953910;28;20027;-78
2023/08/19 09:10:23;;;;;;;10.35;7.82;;;;;;;-148.88;100.00;-17125.47;4953993;29;20110;-77
2023/08/19 09:12:55;;;;;;;9.70;7.25;;;;;;;-148.88;100.00;-17125.47;4955653;28;20054;-77
2023/08/19 09:15:22;;;;;;;10.67;7.63;;;;;;;-148.88;100.00;-17125.47;4955552;28;20026;-77
2023/08/19 09:17:48;;;;;;;10.68;7.60;;;;;;;-148.88;100.00;-17125.47;4953894;28;20043;-76
2023/08/19 09:20:17;;;;;;;10.05;7.30;;;;;;;-148.88;99.13;-17125.47;4955053;28;20023;-76
2023/08/19 09:22:44;;;;;;;8.73;6.97;;;;;;;-148.88;100.00;-17125.47;4953891;29;20031;-77
2023/08/19 09:25:15;;;;;;;9.32;7.70;;;;;;;-148.88;99.92;-17125.47;4955035;28;20030;-77
2023/08/19 09:27:41;;;;;;;10.27;7.60;;;;;;;-148.88;99.50;-17125.47;4954892;28;20035;-77
2023/08/19 09:30:07;;;;;;;9.68;7.22;;;;;;;-148.88;97.05;-17125.47;4954951;28;20023;-77
2023/08/19 09:32:35;;;;;;;8.05;6.75;;;;;;;-148.88;96.00;-17125.47;4955334;28;20027;-76
2023/08/19 09:35:04;;;;;;;8.02;7.15;;;;;;;-148.88;96.40;-17125.47;4953686;29;20020;-77
2023/08/19 09:37:31;;;;;;;9.68;6.97;;;;;;;-148.88;97.09;-17125.47;4955129;28;20395;-77
2023/08/19 09:39:57;;;;;;;8.40;6.85;;;;;;;-148.88;96.14;-17125.47;4955094;28;20035;-77
2023/08/19 09:42:22;;;;;;;7.43;6.43;;;;;;;-148.88;95.23;-17125.47;4953628;29;20033;-77
2023/08/19 09:44:48;;;;;;;9.65;7.43;;;;;;;-148.88;95.64;-17125.47;4955529;28;20038;-77
2023/08/19 09:47:13;;;;;;;8.73;7.28;;;;;;;-148.88;93.32;-17125.47;4955295;28;20100;-78
2023/08/19 09:49:38;;;;;;;9.68;6.45;;;;;;;-148.88;93.30;-17125.47;4955865;28;20030;-77
2023/08/19 09:52:04;;;;;;;7.40;6.13;;;;;;;-148.88;91.31;-17125.47;4957014;28;20030;-76
2023/08/19 09:54:30;;;;;;;9.73;6.15;;;;;;;-148.88;91.97;-17125.47;4956964;29;20446;-77
2023/08/19 09:56:57;;;;;;;7.55;6.15;;;;;;;-148.88;88.16;-17125.47;4957040;28;20478;-76
2023/08/19 09:59:23;;;;;;;7.68;5.40;;;;;;;-148.88;86.51;-17125.47;4959020;28;20086;-77
2023/08/19 10:01:51;;;;;;;8.05;6.50;;;;;;;-148.88;88.24;-17125.47;4960137;28;20023;-77
2023/08/19 10:04:17;;;;;;;11.15;6.00;;;;;;;-148.88;85.49;-17125.47;4956747;29;20031;-77
2023/08/19 10:06:47;;;;;;;8.15;5.65;;;;;;;-148.88;83.16;-17125.47;4956670;28;20469;-77
2023/08/19 10:09:20;;;;;;;7.07;5.57;;;;;;;-148.88;85.92;-17125.47;4958133;28;20109;-76
2023/08/19 10:11:50;;;;;;;7.18;5.20;;;;;;;-148.88;79.74;-17125.47;4957993;28;20390;-77
2023/08/19 10:14:20;;;;;;;6.35;4.65;;;;;;;-148.88;76.33;-17125.47;4957699;28;20482;-77
2023/08/19 10:16:49;;;;;;;5.85;4.32;;;;;;;-148.88;76.60;-17125.47;4957707;28;20039;-76
2023/08/19 10:19:19;;;;;;;6.85;4.82;;;;;;;-148.88;78.14;-17125.47;4956536;29;20034;-77
2023/08/19 10:21:47;;;;;;;7.10;5.03;;;;;;;-148.88;80.33;-17125.47;4957714;28;20031;-77
2023/08/19 10:24:16;;;;;;;6.05;4.00;;;;;;;-148.88;78.77;-17125.47;4958003;28;20027;-77
2023/08/19 10:26:46;;;;;;;7.32;4.70;;;;;;;-148.88;81.90;-17125.47;4957854;28;20420;-77
2023/08/19 10:29:11;;;;;;;6.85;4.88;;;;;;;-148.88;82.80;-17125.47;4956440;29;20038;-77
2023/08/19 10:31:37;;;;;;;7.68;5.28;;;;;;;-148.88;83.16;-17125.47;4957755;28;20031;-77
2023/08/19 10:34:29;;;;;;;9.30;5.13;;;;;;;-148.88;86.40;-17125.47;4957681;28;20034;-77
2023/08/19 10:37:09;;;;;;;6.47;5.18;;;;;;;-148.88;84.04;-17125.47;4956052;28;20043;-77
2023/08/19 10:39:35;;;;;;;5.88;5.25;;;;;;;-148.88;83.72;-17125.47;4957460;28;20512;-78
2023/08/19 10:42:01;;;;;;;7.25;5.20;;;;;;;-148.88;86.44;-17125.47;4957310;28;20027;-77
2023/08/19 10:44:31;;;;;;;10.02;5.00;;;;;;;-148.88;85.05;-17125.47;4956016;29;20023;-77
2023/08/19 10:47:08;;;;;;;7.70;4.47;;;;;;;-148.88;85.93;-17125.47;4957219;28;20074;-77
2023/08/19 10:49:34;;;;;;;7.45;5.57;;;;;;;-148.88;87.75;-17125.47;4957307;28;20023;-77
2023/08/19 10:52:04;;;;;;;7.53;5.03;;;;;;;-148.88;88.82;-17125.47;4957182;28;20394;-77
2023/08/19 10:54:47;;;;;;;7.43;4.50;;;;;;;-148.88;89.75;-17125.47;4956964;28;20074;-77
2023/08/19 10:57:22;;;;;;;6.13;5.20;;;;;;;-148.88;92.48;-17125.47;4955924;28;20521;-77